createdAt,value
2022-09-21T00:05:12.885Z,5.95
2022-09-21T00:08:25.744Z,5.45
2022-09-21T00:11:51.738Z,4.87
2022-09-21T00:15:03.728Z,5.55
2022-09-21T00:18:10.315Z,4.32
2022-09-21T00:27:33.801Z,4.82
2022-09-21T00:30:47.457Z,6.12
2022-09-21T00:33:57.299Z,5.65
2022-09-21T00:37:07.679Z,6.15
2022-09-21T00:44:01.864Z,4.43
2022-09-21T00:46:40.000Z,5.20
2022-09-21T00:50:30.982Z,5.85
2022-09-21T00:53:18.853Z,5.70
2022-09-21T00:56:29.753Z,5.55
2022-09-21T00:59:31.024Z,4.95
2022-09-21T01:02:16.494Z,7.12
2022-09-21T01:05:09.028Z,4.95
2022-09-21T01:08:08.530Z,4.37
2022-09-21T01:11:18.510Z,5.82
2022-09-21T01:14:03.168Z,6.35
2022-09-21T01:17:07.358Z,5.72
2022-09-21T01:20:39.006Z,6.80
2022-09-21T01:23:49.187Z,6.03
2022-09-21T01:26:51.393Z,5.07
2022-09-21T01:33:54.621Z,6.60
2022-09-21T01:36:45.870Z,6.35
2022-09-21T01:39:32.473Z,6.43
2022-09-21T01:42:12.161Z,6.75
2022-09-21T01:44:48.872Z,4.70
2022-09-21T01:47:28.633Z,7.50
2022-09-21T01:50:15.952Z,6.03
2022-09-21T01:52:59.898Z,5.78
2022-09-21T01:55:57.960Z,6.75
2022-09-21T01:58:45.419Z,5.55
2022-09-21T02:01:23.364Z,5.47
2022-09-21T02:04:08.124Z,5.70
2022-09-21T02:06:52.409Z,5.40
2022-09-21T02:09:26.680Z,6.37
2022-09-21T02:12:04.225Z,6.47
2022-09-21T02:14:56.289Z,6.07
2022-09-21T02:18:17.742Z,5.45
2022-09-21T02:21:03.465Z,5.75
2022-09-21T02:26:24.783Z,4.90
2022-09-21T02:29:43.900Z,5.80
2022-09-21T02:33:13.861Z,5.35
2022-09-21T02:36:27.919Z,4.82
2022-09-21T02:39:07.839Z,4.85
2022-09-21T02:42:03.766Z,6.00
2022-09-21T02:45:52.889Z,5.43
2022-09-21T02:49:34.879Z,5.25
2022-09-21T02:52:03.066Z,5.43
2022-09-21T02:55:44.724Z,5.15
2022-09-21T02:58:25.701Z,6.32
2022-09-21T03:04:15.605Z,5.53
2022-09-21T03:07:10.526Z,8.07
2022-09-21T03:10:07.455Z,8.65
2022-09-21T03:13:13.939Z,5.40
2022-09-21T03:16:08.578Z,6.87
2022-09-21T03:19:13.889Z,5.78
2022-09-21T03:22:04.689Z,5.00
2022-09-21T03:24:48.369Z,6.82
2022-09-21T03:27:36.551Z,6.25
2022-09-21T03:30:57.755Z,8.07
2022-09-21T03:33:12.574Z,9.18
2022-09-21T03:36:03.481Z,7.62
2022-09-21T03:38:37.654Z,5.75
2022-09-21T03:41:14.551Z,5.57
2022-09-21T03:44:06.185Z,6.72
2022-09-21T03:47:01.102Z,5.87
2022-09-21T03:50:00.840Z,7.07
2022-09-21T03:52:34.673Z,6.22
2022-09-21T03:55:53.146Z,6.95
2022-09-21T03:58:40.241Z,6.75
2022-09-21T04:02:20.252Z,5.95
2022-09-21T04:04:56.270Z,7.05
2022-09-21T04:08:00.116Z,6.40
2022-09-21T04:10:57.968Z,6.18
2022-09-21T04:13:51.391Z,6.00
2022-09-21T04:17:02.695Z,8.70
2022-09-21T04:20:08.221Z,7.60
2022-09-21T04:23:07.227Z,8.47
2022-09-21T04:26:02.221Z,6.93
2022-09-21T04:28:48.133Z,11.07
2022-09-21T04:31:43.422Z,11.10
2022-09-21T04:34:46.591Z,8.93
2022-09-21T04:37:51.438Z,8.00
2022-09-21T04:40:43.902Z,9.15
2022-09-21T04:43:29.788Z,6.20
2022-09-21T04:46:19.052Z,8.82
2022-09-21T04:49:16.236Z,6.05
2022-09-21T04:52:07.853Z,7.00
2022-09-21T04:55:29.082Z,7.57
2022-09-21T04:59:48.453Z,7.07
2022-09-21T05:10:04.864Z,9.43
2022-09-21T05:59:03.836Z,8.75
2022-09-21T06:02:04.451Z,11.80
2022-09-21T06:04:40.287Z,10.50
2022-09-21T06:07:33.767Z,9.73
2022-09-21T06:13:45.193Z,8.45
2022-09-21T06:20:12.534Z,13.43
2022-09-21T06:23:06.428Z,11.68
2022-09-21T06:26:17.930Z,8.13
2022-09-21T06:29:05.290Z,9.60
2022-09-21T06:31:43.523Z,8.65
2022-09-21T06:34:24.189Z,9.15
2022-09-21T06:37:07.470Z,9.45
2022-09-21T06:43:48.578Z,6.22
2022-09-21T06:46:41.266Z,8.70
2022-09-21T06:49:46.719Z,9.57
2022-09-21T07:00:34.310Z,7.32
2022-09-21T07:02:38.211Z,7.30
2022-09-21T07:05:18.746Z,7.45
2022-09-21T07:08:06.819Z,7.87
2022-09-21T07:11:09.540Z,7.35
2022-09-21T07:13:54.936Z,8.40
2022-09-21T07:16:27.655Z,7.20
2022-09-21T07:19:20.231Z,12.30
2022-09-21T07:22:01.676Z,7.28
2022-09-21T07:27:29.007Z,6.15
2022-09-21T07:30:54.614Z,6.18
2022-09-21T07:35:06.663Z,7.82
2022-09-21T07:37:41.553Z,8.02
2022-09-21T07:40:32.003Z,9.35
2022-09-21T07:43:52.442Z,6.43
2022-09-21T07:46:29.900Z,7.82
2022-09-21T07:49:36.681Z,8.25
2022-09-21T07:52:10.464Z,6.87
2022-09-21T07:55:03.782Z,11.27
2022-09-21T07:58:03.499Z,8.40
2022-09-21T08:00:35.818Z,7.32
2022-09-21T08:03:05.376Z,8.38
2022-09-21T08:05:43.823Z,8.25
2022-09-21T08:08:26.645Z,5.80
2022-09-21T08:11:05.581Z,6.82
2022-09-21T08:21:06.039Z,6.45
2022-09-21T08:28:18.668Z,6.60
2022-09-21T08:32:05.543Z,9.68
2022-09-21T08:35:53.133Z,5.00
2022-09-21T08:43:16.874Z,5.57
2022-09-21T08:47:13.558Z,5.95
2022-09-21T08:50:41.376Z,5.68
2022-09-21T09:14:19.584Z,5.40
2022-09-21T09:21:38.965Z,4.55
2022-09-21T09:39:38.454Z,7.40
2022-09-21T10:20:23.298Z,4.72
2022-09-21T10:42:08.973Z,3.25
2022-09-21T12:49:02.014Z,5.20
2022-09-21T12:51:59.860Z,2.58
2022-09-21T12:55:16.113Z,1.02
2022-09-21T12:58:16.792Z,0.80
2022-09-21T13:01:26.502Z,2.83
2022-09-21T13:07:23.653Z,1.37
2022-09-21T13:10:15.456Z,2.70
2022-09-21T13:52:54.096Z,4.75
2022-09-21T13:59:46.467Z,1.00
2022-09-21T14:03:11.351Z,1.42
2022-09-21T15:47:29.932Z,1.00
2022-09-21T15:50:45.245Z,1.40
2022-09-21T15:53:33.422Z,1.67
2022-09-21T23:55:15.398Z,6.62
2022-09-21T23:58:16.006Z,4.68
